Time;durP1;ratioP1;P1;durP2;ratioP2;P2;SDS_P1;SDS_P2;PMS_P1;PMS_P2;Temp;Humidity;BMP_temperature;BMP_pressure;BME280_temperature;BME280_humidity;BME280_pressure;Samples;Min_cycle;Max_cycle;Signal;HPM_P1;HPM_P2
2021/05/04 00:01:31;;;;;;;3.75;2.90;;;7.50;77.10;;;;;;3543547;40;20147;-65
2021/05/04 00:03:57;;;;;;;3.33;2.70;;;7.50;77.00;;;;;;3545475;40;20045;-65
2021/05/04 00:06:23;;;;;;;4.60;2.90;;;7.60;77.40;;;;;;3546138;40;20061;-64
2021/05/04 00:08:48;;;;;;;3.58;2.90;;;7.70;77.20;;;;;;3545018;40;20446;-65
2021/05/04 00:11:14;;;;;;;3.83;2.53;;;7.70;76.10;;;;;;3543249;40;20862;-64
2021/05/04 00:13:40;;;;;;;3.60;2.58;;;7.80;77.10;;;;;;3542246;40;20567;-64
2021/05/04 00:16:06;;;;;;;3.78;2.70;;;7.80;76.10;;;;;;3540875;40;20027;-64
2021/05/04 00:18:31;;;;;;;3.00;2.47;;;7.90;76.00;;;;;;3542312;40;20038;-65
2021/05/04 00:20:57;;;;;;;3.67;2.55;;;8.00;74.70;;;;;;3538131;40;20046;-64
2021/05/04 00:23:23;;;;;;;3.88;2.58;;;8.00;74.70;;;;;;3539635;40;20038;-63
2021/05/04 00:25:48;;;;;;;2.80;2.60;;;8.00;73.70;;;;;;3541954;40;20049;-65
2021/05/04 00:28:14;;;;;;;6.07;3.58;;;8.20;74.20;;;;;;3544147;40;20047;-64
2021/05/04 00:30:40;;;;;;;3.20;2.78;;;8.20;74.10;;;;;;3545614;40;20803;-65
2021/05/04 00:33:05;;;;;;;5.85;2.67;;;8.20;74.20;;;;;;3546242;40;20022;-65
2021/05/04 00:35:31;;;;;;;3.42;2.78;;;8.30;72.30;;;;;;3547182;40;20033;-65
2021/05/04 00:37:57;;;;;;;3.13;2.42;;;8.30;73.00;;;;;;3545451;40;20058;-65
2021/05/04 00:40:22;;;;;;;3.75;2.90;;;8.30;71.50;;;;;;3543290;40;20058;-65
2021/05/04 00:42:48;;;;;;;4.93;2.70;;;8.40;72.30;;;;;;3545462;40;20050;-65
2021/05/04 00:45:14;;;;;;;3.20;2.47;;;8.40;73.60;;;;;;3544563;40;20038;-65
2021/05/04 00:47:39;;;;;;;3.58;2.35;;;8.40;69.40;;;;;;3548154;40;20597;-64
2021/05/04 00:50:06;;;;;;;3.95;2.70;;;8.40;70.30;;;;;;3546398;40;20343;-64
2021/05/04 00:52:33;;;;;;;4.72;3.10;;;8.50;71.20;;;;;;3545355;40;20112;-65
2021/05/04 00:54:59;;;;;;;5.78;2.90;;;8.50;71.50;;;;;;3544466;40;20027;-64
2021/05/04 00:57:25;;;;;;;4.10;2.67;;;8.60;70.10;;;;;;3545927;40;20042;-64
2021/05/04 00:59:52;;;;;;;2.95;2.58;;;8.60;69.60;;;;;;3548602;40;20584;-64
2021/05/04 01:02:19;;;;;;;4.03;2.72;;;8.70;68.60;;;;;;3548671;40;20033;-64
2021/05/04 01:04:45;;;;;;;2.63;2.28;;;8.70;70.60;;;;;;3546256;40;20030;-64
2021/05/04 01:07:11;;;;;;;4.85;2.90;;;8.70;67.50;;;;;;3543940;40;20367;-63
2021/05/04 01:09:37;;;;;;;3.28;2.70;;;8.70;67.60;;;;;;3545953;40;20034;-64
2021/05/04 01:12:04;;;;;;;5.97;2.95;;;8.80;66.70;;;;;;3546653;40;20038;-64
2021/05/04 01:14:30;;;;;;;4.22;2.90;;;8.80;67.20;;;;;;3552491;40;20026;-64
2021/05/04 01:16:55;;;;;;;4.15;3.00;;;8.80;66.90;;;;;;3552947;40;20037;-64
2021/05/04 01:19:23;;;;;;;4.10;3.00;;;8.80;68.50;;;;;;3549152;40;20081;-64
2021/05/04 01:21:49;;;;;;;4.40;3.05;;;8.90;67.70;;;;;;3544089;40;20527;-64
2021/05/04 01:24:16;;;;;;;4.63;3.08;;;9.00;66.20;;;;;;3544199;40;20037;-65
2021/05/04 01:26:43;;;;;;;4.85;3.05;;;9.00;65.80;;;;;;3540502;40;20104;-65
2021/05/04 01:29:09;;;;;;;2.65;2.25;;;9.00;66.60;;;;;;3543133;40;20018;-65
2021/05/04 01:34:13;;;;;;;3.38;3.08;;;9.10;67.30;;;;;;3590338;39;20442;-63
2021/05/04 01:36:39;;;;;;;6.47;2.90;;;9.10;66.80;;;;;;3594086;39;20032;-64
2021/05/04 01:39:09;;;;;;;4.10;2.83;;;9.10;65.60;;;;;;3589565;39;20352;-62
2021/05/04 01:41:36;;;;;;;6.00;3.10;;;9.10;64.90;;;;;;3587335;39;20036;-63
2021/05/04 01:44:04;;;;;;;3.65;2.70;;;9.10;64.40;;;;;;3587303;39;20034;-63
2021/05/04 01:46:32;;;;;;;3.20;2.47;;;9.10;64.80;;;;;;3589663;39;20032;-64
2021/05/04 01:49:03;;;;;;;5.97;3.03;;;9.10;64.40;;;;;;3591655;39;20032;-63
2021/05/04 01:51:29;;;;;;;3.17;2.47;;;9.10;64.70;;;;;;3591772;39;20032;-63
2021/05/04 01:53:56;;;;;;;4.78;2.75;;;9.10;64.90;;;;;;3595194;39;20032;-64
2021/05/04 01:56:22;;;;;;;3.17;2.40;;;9.10;64.90;;;;;;3596627;39;20058;-60
2021/05/04 01:58:49;;;;;;;3.58;3.08;;;9.10;64.30;;;;;;3595103;39;20056;-60
2021/05/04 02:01:15;;;;;;;4.85;2.67;;;9.10;65.20;;;;;;3591540;39;20044;-64
2021/05/04 02:03:41;;;;;;;3.67;2.50;;;9.10;64.80;;;;;;3591067;39;20106;-59
2021/05/04 02:06:07;;;;;;;4.45;3.00;;;9.20;63.60;;;;;;3592860;39;20160;-59
2021/05/04 02:08:33;;;;;;;4.88;3.03;;;9.20;64.20;;;;;;3594420;39;20036;-60
2021/05/04 02:10:59;;;;;;;4.72;2.80;;;9.20;63.00;;;;;;3595451;39;20132;-60
2021/05/04 02:13:25;;;;;;;3.65;2.65;;;9.20;63.70;;;;;;3593676;39;20049;-60
2021/05/04 02:15:51;;;;;;;5.70;2.95;;;9.20;63.80;;;;;;3592194;39;20868;-59
2021/05/04 02:18:17;;;;;;;7.93;2.72;;;9.20;62.90;;;;;;3590831;39;20040;-60
2021/05/04 02:20:43;;;;;;;4.90;3.03;;;9.20;62.90;;;;;;3588536;39;20853;-60
2021/05/04 02:23:09;;;;;;;4.30;2.70;;;9.20;62.10;;;;;;3587410;39;20036;-60
2021/05/04 02:25:35;;;;;;;3.88;3.05;;;9.20;62.40;;;;;;3586977;39;20440;-60
2021/05/04 02:28:03;;;;;;;4.78;3.30;;;9.20;63.90;;;;;;3588399;39;20076;-60
2021/05/04 02:30:30;;;;;;;5.03;2.78;;;9.30;63.70;;;;;;3588368;39;20040;-60
2021/05/04 02:32:56;;;;;;;3.88;2.95;;;9.30;62.60;;;;;;3588617;39;20203;-60
2021/05/04 02:35:22;;;;;;;3.97;3.45;;;9.30;62.70;;;;;;3591333;39;20046;-59
2021/05/04 02:37:48;;;;;;;5.15;3.60;;;9.30;62.10;;;;;;3592235;39;20028;-60
2021/05/04 02:40:14;;;;;;;7.25;3.00;;;9.30;62.00;;;;;;3590301;39;20843;-60
2021/05/04 02:42:39;;;;;;;4.30;3.38;;;9.20;62.50;;;;;;3589751;39;20401;-59
2021/05/04 02:45:06;;;;;;;4.07;3.38;;;9.20;62.50;;;;;;3586238;39;20109;-59
2021/05/04 02:47:32;;;;;;;4.97;3.30;;;9.20;62.10;;;;;;3583647;40;20051;-60
2021/05/04 02:49:57;;;;;;;3.78;3.22;;;9.30;62.10;;;;;;3582807;40;20467;-60
2021/05/04 02:52:23;;;;;;;4.88;3.20;;;9.30;61.80;;;;;;3586692;40;20041;-60
2021/05/04 02:54:49;;;;;;;5.30;2.90;;;9.30;62.20;;;;;;3585804;40;20725;-59
2021/05/04 02:57:16;;;;;;;7.45;3.55;;;9.30;61.70;;;;;;3582902;40;20126;-60
2021/05/04 02:59:42;;;;;;;3.83;2.88;;;9.20;62.30;;;;;;3580999;40;20032;-61
2021/05/04 03:02:07;;;;;;;4.97;3.50;;;9.20;61.50;;;;;;3583320;40;20031;-63
2021/05/04 03:04:33;;;;;;;4.32;3.00;;;9.20;60.80;;;;;;3583279;39;20028;-60
2021/05/04 03:06:59;;;;;;;4.97;3.10;;;9.20;62.10;;;;;;3585195;40;20537;-60
2021/05/04 03:09:25;;;;;;;6.85;3.38;;;9.20;61.40;;;;;;3582733;40;20051;-60
2021/05/04 03:11:50;;;;;;;4.18;3.45;;;9.20;62.60;;;;;;3583458;40;20404;-61
2021/05/04 03:14:16;;;;;;;3.60;2.90;;;9.20;63.00;;;;;;3584370;40;20134;-60
2021/05/04 03:16:42;;;;;;;8.48;3.50;;;9.20;62.30;;;;;;3583242;40;20415;-60
2021/05/04 03:19:07;;;;;;;5.07;3.22;;;9.20;62.60;;;;;;3587364;39;20031;-60
2021/05/04 03:21:33;;;;;;;9.00;3.80;;;9.20;62.70;;;;;;3580368;40;20043;-60
2021/05/04 03:23:59;;;;;;;5.50;3.20;;;9.20;62.90;;;;;;3581777;40;20044;-61
2021/05/04 03:26:24;;;;;;;5.60;3.65;;;9.20;62.10;;;;;;3582701;40;20098;-60
2021/05/04 03:28:50;;;;;;;3.85;3.22;;;9.20;62.00;;;;;;3584417;40;20033;-64
2021/05/04 03:31:16;;;;;;;6.35;3.30;;;9.30;62.60;;;;;;3585724;40;20521;-61
2021/05/04 03:33:41;;;;;;;6.28;3.70;;;9.30;62.30;;;;;;3581026;40;20040;-62
2021/05/04 03:36:07;;;;;;;6.72;4.05;;;9.30;61.90;;;;;;3582559;40;20091;-64
2021/05/04 03:38:33;;;;;;;5.78;4.53;;;9.30;61.00;;;;;;3581806;39;20047;-63
2021/05/04 03:41:00;;;;;;;7.88;3.88;;;9.30;60.80;;;;;;3582382;40;20114;-64
2021/05/04 03:43:25;;;;;;;4.40;3.60;;;9.30;60.90;;;;;;3583429;40;20019;-63
2021/05/04 03:45:51;;;;;;;7.15;3.83;;;9.30;61.20;;;;;;3582317;39;20039;-64
2021/05/04 03:48:16;;;;;;;4.75;3.83;;;9.30;61.50;;;;;;3581752;40;20406;-65
2021/05/04 03:50:42;;;;;;;6.85;3.80;;;9.30;61.90;;;;;;3581608;40;20041;-63
2021/05/04 03:53:08;;;;;;;8.77;4.43;;;9.30;61.50;;;;;;3583551;40;20039;-62
2021/05/04 03:55:34;;;;;;;6.68;3.85;;;9.30;62.20;;;;;;3582821;40;20032;-63
2021/05/04 03:58:00;;;;;;;5.60;4.10;;;9.30;62.30;;;;;;3582684;40;20032;-63
2021/05/04 04:00:25;;;;;;;5.47;3.85;;;9.40;61.80;;;;;;3582952;40;20073;-64
2021/05/04 04:02:52;;;;;;;8.77;3.97;;;9.40;61.10;;;;;;3580527;40;20094;-64
2021/05/04 04:05:18;;;;;;;4.70;3.75;;;9.40;61.00;;;;;;3579677;40;20021;-64
2021/05/04 04:07:44;;;;;;;6.50;4.22;;;9.40;61.00;;;;;;3582877;39;20294;-63
2021/05/04 04:10:11;;;;;;;6.22;3.83;;;9.50;60.60;;;;;;3581836;40;20031;-63
2021/05/04 04:12:37;;;;;;;7.82;4.28;;;9.50;60.90;;;;;;3580360;39;20717;-63
2021/05/04 04:15:03;;;;;;;7.30;4.22;;;9.40;60.70;;;;;;3580235;40;20029;-62
2021/05/04 04:17:29;;;;;;;10.40;4.10;;;9.50;60.60;;;;;;3581698;40;20039;-64
2021/05/04 04:19:55;;;;;;;6.53;3.95;;;9.60;60.60;;;;;;3582476;39;20034;-64
2021/05/04 04:22:20;;;;;;;6.18;3.92;;;9.70;60.80;;;;;;3582231;40;20035;-63
2021/05/04 04:24:46;;;;;;;8.13;3.95;;;9.70;60.10;;;;;;3580813;40;20039;-63
2021/05/04 04:27:12;;;;;;;4.78;3.72;;;9.70;59.40;;;;;;3583387;40;20032;-64
2021/05/04 04:29:38;;;;;;;5.20;3.72;;;9.70;60.40;;;;;;3586408;40;20313;-63
2021/05/04 04:32:04;;;;;;;7.22;3.67;;;9.70;59.50;;;;;;3583588;39;20040;-64
2021/05/04 04:34:30;;;;;;;5.80;3.58;;;9.70;60.70;;;;;;3581664;40;20662;-65
2021/05/04 04:36:56;;;;;;;7.00;4.22;;;9.80;60.20;;;;;;3581674;39;20147;-63
2021/05/04 04:39:22;;;;;;;4.07;3.17;;;9.80;59.50;;;;;;3583883;39;20432;-65
2021/05/04 04:41:48;;;;;;;6.35;3.97;;;9.80;59.50;;;;;;3579830;40;20028;-64
2021/05/04 04:44:14;;;;;;;7.75;3.75;;;9.80;59.10;;;;;;3580655;40;20021;-63
2021/05/04 04:46:40;;;;;;;4.93;3.80;;;9.90;58.40;;;;;;3580874;40;20040;-64
2021/05/04 04:49:14;;;;;;;5.38;3.70;;;10.00;58.70;;;;;;3582806;40;20052;-65
2021/05/04 04:51:40;;;;;;;8.18;3.75;;;10.00;58.90;;;;;;3581420;40;20052;-64
2021/05/04 04:54:06;;;;;;;5.68;4.20;;;10.10;58.80;;;;;;3580663;40;20084;-65
2021/05/04 04:56:33;;;;;;;6.03;4.05;;;10.10;58.20;;;;;;3585134;39;20306;-64
2021/05/04 04:58:59;;;;;;;6.13;4.07;;;10.10;57.80;;;;;;3584992;39;20032;-63
2021/05/04 05:01:25;;;;;;;8.48;3.80;;;10.10;57.80;;;;;;3582916;39;20040;-65
2021/05/04 05:03:50;;;;;;;6.22;4.18;;;10.20;58.00;;;;;;3581464;40;20059;-65
2021/05/04 05:06:16;;;;;;;7.43;3.85;;;10.20;58.30;;;;;;3583105;40;20016;-65
2021/05/04 05:08:42;;;;;;;8.27;4.00;;;10.30;58.00;;;;;;3589156;40;20040;-64
2021/05/04 05:11:08;;;;;;;7.22;3.60;;;10.40;58.50;;;;;;3584415;39;20660;-59
2021/05/04 05:13:33;;;;;;;7.00;3.60;;;10.40;57.50;;;;;;3586416;40;20025;-63
2021/05/04 05:15:59;;;;;;;5.95;3.78;;;10.50;57.00;;;;;;3585713;40;20139;-63
2021/05/04 05:18:25;;;;;;;5.35;3.63;;;10.50;57.00;;;;;;3584749;39;20019;-64
2021/05/04 05:20:51;;;;;;;5.80;3.92;;;10.60;56.40;;;;;;3587870;40;20337;-64
2021/05/04 05:23:17;;;;;;;4.97;3.67;;;10.60;56.00;;;;;;3589424;40;20414;-62
2021/05/04 05:25:43;;;;;;;6.03;3.75;;;10.60;57.00;;;;;;3581991;40;20694;-63
2021/05/04 05:28:09;;;;;;;6.85;3.63;;;10.70;55.90;;;;;;3582397;40;20365;-63
2021/05/04 05:30:35;;;;;;;7.18;3.88;;;10.80;56.00;;;;;;3583538;40;20030;-64
2021/05/04 05:33:01;;;;;;;6.32;4.25;;;10.90;56.20;;;;;;3579626;40;20040;-64
2021/05/04 05:35:27;;;;;;;4.97;3.80;;;11.00;55.10;;;;;;3578976;40;20044;-64
2021/05/04 05:37:53;;;;;;;7.10;3.92;;;11.10;55.70;;;;;;3583237;40;20420;-65
2021/05/04 05:40:19;;;;;;;6.20;4.00;;;11.20;55.80;;;;;;3585190;40;20129;-65
2021/05/04 05:42:45;;;;;;;5.13;3.65;;;11.40;54.70;;;;;;3587839;39;20036;-64
2021/05/04 05:45:11;;;;;;;5.72;3.72;;;11.40;54.10;;;;;;3585808;40;20665;-65
2021/05/04 05:47:37;;;;;;;5.85;4.13;;;11.60;54.50;;;;;;3587584;40;20415;-68
2021/05/04 05:50:04;;;;;;;5.25;3.67;;;11.60;54.10;;;;;;3584177;39;20084;-65
2021/05/04 05:52:30;;;;;;;8.93;4.53;;;11.70;54.20;;;;;;3582977;40;20036;-61
2021/05/04 05:54:56;;;;;;;6.50;4.30;;;11.70;53.30;;;;;;3584888;39;20282;-65
2021/05/04 05:57:21;;;;;;;10.80;6.25;;;11.90;53.90;;;;;;3585711;40;20828;-64
2021/05/04 05:59:47;;;;;;;6.20;3.70;;;11.90;54.20;;;;;;3587255;40;20040;-64
2021/05/04 06:02:13;;;;;;;5.82;3.75;;;12.10;53.50;;;;;;3582786;40;20040;-65
2021/05/04 06:04:39;;;;;;;6.57;4.20;;;12.10;52.90;;;;;;3584868;40;20852;-65
2021/05/04 06:07:04;;;;;;;6.03;4.00;;;12.10;53.80;;;;;;3589571;40;20062;-63
2021/05/04 06:09:30;;;;;;;6.00;4.03;;;12.20;53.40;;;;;;3586483;40;20043;-64
2021/05/04 06:11:56;;;;;;;8.43;3.92;;;12.30;52.50;;;;;;3586058;39;20028;-64
2021/05/04 06:14:22;;;;;;;7.22;4.18;;;12.30;52.80;;;;;;3583456;40;20414;-64
2021/05/04 06:16:48;;;;;;;8.82;3.80;;;12.40;52.10;;;;;;3586260;39;20032;-65
2021/05/04 06:19:13;;;;;;;5.50;3.85;;;12.40;52.60;;;;;;3588337;39;20048;-64
2021/05/04 06:21:39;;;;;;;5.90;3.85;;;12.50;52.10;;;;;;3589058;40;20028;-64
2021/05/04 06:24:05;;;;;;;6.57;4.20;;;12.50;52.00;;;;;;3586116;39;20024;-65
2021/05/04 06:26:31;;;;;;;8.48;3.60;;;12.50;51.90;;;;;;3585922;39;20073;-65
2021/05/04 06:28:57;;;;;;;4.55;3.53;;;12.50;52.10;;;;;;3588642;40;20023;-66
2021/05/04 06:31:22;;;;;;;7.18;3.85;;;12.60;52.50;;;;;;3591457;40;20036;-64
2021/05/04 06:33:48;;;;;;;5.50;3.55;;;12.60;52.10;;;;;;3591084;40;20050;-64
2021/05/04 06:36:14;;;;;;;6.35;3.47;;;12.60;52.40;;;;;;3586008;40;20035;-65
2021/05/04 06:38:40;;;;;;;7.65;4.10;;;12.50;52.50;;;;;;3587528;40;20074;-64
2021/05/04 06:41:06;;;;;;;5.88;3.40;;;12.40;52.80;;;;;;3584419;40;20025;-64
2021/05/04 06:43:32;;;;;;;7.00;4.10;;;12.40;53.10;;;;;;3585608;40;20036;-64
2021/05/04 06:45:59;;;;;;;4.72;3.67;;;12.40;52.90;;;;;;3587954;39;20145;-64
2021/05/04 06:48:25;;;;;;;9.00;4.20;;;12.40;53.20;;;;;;3585865;40;20603;-65
2021/05/04 06:50:52;;;;;;;10.73;3.90;;;12.30;54.10;;;;;;3583682;40;20033;-64
2021/05/04 06:53:18;;;;;;;7.53;3.80;;;12.30;54.40;;;;;;3586499;39;20020;-63
2021/05/04 06:55:46;;;;;;;4.97;3.30;;;12.40;53.10;;;;;;3584674;39;20029;-63
2021/05/04 06:58:12;;;;;;;5.32;3.58;;;12.40;53.50;;;;;;3587593;39;20027;-64
2021/05/04 07:00:38;;;;;;;6.07;3.47;;;12.40;53.70;;;;;;3589611;40;20064;-63
2021/05/04 07:03:04;;;;;;;6.03;3.65;;;12.30;54.30;;;;;;3587961;40;20029;-64
2021/05/04 07:05:30;;;;;;;6.15;3.85;;;12.20;53.90;;;;;;3586208;40;20377;-64
2021/05/04 07:07:56;;;;;;;9.07;4.00;;;12.20;55.00;;;;;;3584963;40;20035;-62
2021/05/04 07:10:21;;;;;;;6.22;3.90;;;12.30;54.90;;;;;;3583456;40;20414;-60
2021/05/04 07:12:47;;;;;;;4.75;3.90;;;12.30;56.20;;;;;;3588397;39;20024;-60
2021/05/04 07:15:13;;;;;;;5.72;4.07;;;12.40;55.70;;;;;;3586385;40;20035;-60
2021/05/04 07:17:39;;;;;;;5.80;3.67;;;12.30;57.60;;;;;;3586882;39;20017;-60
2021/05/04 07:20:05;;;;;;;5.03;3.53;;;12.30;58.50;;;;;;3586367;40;20044;-60
2021/05/04 07:22:33;;;;;;;6.63;3.75;;;12.20;58.70;;;;;;3586763;40;20028;-60
2021/05/04 07:24:59;;;;;;;6.75;4.28;;;12.00;60.10;;;;;;3582836;40;20025;-60
2021/05/04 07:27:25;;;;;;;8.15;4.45;;;11.90;60.30;;;;;;3586496;40;20036;-60
2021/05/04 07:29:51;;;;;;;13.27;6.07;;;11.90;63.00;;;;;;3586836;39;20067;-59
2021/05/04 07:32:18;;;;;;;3.67;2.90;;;11.80;62.90;;;;;;3587952;40;20720;-59
2021/05/04 07:34:47;;;;;;;6.22;3.53;;;11.80;63.70;;;;;;3585652;40;20044;-60
2021/05/04 07:37:13;;;;;;;6.15;3.33;;;11.80;63.40;;;;;;3585322;40;20681;-59
2021/05/04 07:39:39;;;;;;;4.45;2.88;;;11.80;62.60;;;;;;3581889;40;20037;-60
2021/05/04 07:42:06;;;;;;;5.00;3.00;;;11.80;63.00;;;;;;3583287;40;20109;-60
2021/05/04 07:44:32;;;;;;;4.63;2.95;;;11.90;61.50;;;;;;3584376;40;20043;-59
2021/05/04 07:46:58;;;;;;;3.40;2.42;;;11.90;61.30;;;;;;3585527;40;20079;-60
2021/05/04 07:49:34;;;;;;;4.05;2.85;;;12.20;60.60;;;;;;3585505;40;20039;-64
2021/05/04 07:52:00;;;;;;;3.00;2.60;;;12.30;61.10;;;;;;3584076;40;20036;-60
2021/05/04 07:54:26;;;;;;;4.10;2.88;;;12.50;59.50;;;;;;3587162;40;20032;-60
2021/05/04 07:56:51;;;;;;;4.35;2.88;;;12.60;58.40;;;;;;3590060;39;20133;-60
2021/05/04 07:59:17;;;;;;;4.50;2.65;;;12.70;57.20;;;;;;3586492;39;20035;-60
2021/05/04 08:01:43;;;;;;;4.05;3.03;;;12.90;57.00;;;;;;3582474;40;20547;-60
2021/05/04 08:04:10;;;;;;;10.07;3.25;;;13.00;58.40;;;;;;3587207;39;20777;-61
2021/05/04 08:06:36;;;;;;;3.13;2.70;;;13.20;57.90;;;;;;3584234;39;20040;-61
2021/05/04 08:09:01;;;;;;;3.85;2.58;;;13.40;57.30;;;;;;3583003;40;20715;-62
2021/05/04 08:11:27;;;;;;;7.82;2.85;;;13.30;56.40;;;;;;3586260;40;20032;-61
2021/05/04 08:13:53;;;;;;;2.80;2.40;;;13.40;57.10;;;;;;3587703;39;20060;-61
2021/05/04 08:16:20;;;;;;;4.43;2.97;;;13.40;55.70;;;;;;3584865;40;20017;-60
2021/05/04 08:18:48;;;;;;;3.92;2.78;;;13.60;57.00;;;;;;3583538;40;20028;-60
2021/05/04 08:21:14;;;;;;;4.35;2.30;;;13.60;54.80;;;;;;3585353;40;20063;-60
2021/05/04 08:23:40;;;;;;;5.10;2.47;;;13.60;55.10;;;;;;3588493;40;20751;-60
2021/05/04 08:26:06;;;;;;;4.88;2.50;;;13.60;55.20;;;;;;3587866;40;20039;-60
2021/05/04 08:28:31;;;;;;;6.15;3.60;;;13.60;54.50;;;;;;3586150;40;20040;-60
2021/05/04 08:30:58;;;;;;;5.40;2.78;;;13.60;54.50;;;;;;3583600;39;20428;-60
2021/05/04 08:33:24;;;;;;;2.60;2.28;;;13.60;54.10;;;;;;3582862;40;20039;-60
2021/05/04 08:35:50;;;;;;;5.68;2.55;;;13.70;54.60;;;;;;3588920;40;20046;-60
2021/05/04 08:38:16;;;;;;;7.13;2.53;;;13.90;55.00;;;;;;3585998;40;20029;-60
2021/05/04 08:40:44;;;;;;;2.58;2.25;;;14.10;53.20;;;;;;3585876;40;20043;-62
2021/05/04 08:43:10;;;;;;;3.85;2.63;;;14.40;53.30;;;;;;3575180;39;20032;-61
2021/05/04 08:45:35;;;;;;;4.00;2.33;;;14.70;51.70;;;;;;3583023;40;20028;-61
2021/05/04 08:48:01;;;;;;;8.55;3.55;;;14.70;51.90;;;;;;3584871;40;20031;-61
2021/05/04 08:50:29;;;;;;;3.25;2.03;;;14.70;52.60;;;;;;3577835;39;20370;-62
2021/05/04 08:52:55;;;;;;;4.25;2.10;;;14.90;51.80;;;;;;3576674;39;20053;-62
2021/05/04 08:55:21;;;;;;;2.85;2.15;;;15.10;51.30;;;;;;3580073;39;20634;-62
2021/05/04 08:57:47;;;;;;;6.40;2.85;;;15.20;52.00;;;;;;3583514;40;20028;-71
2021/05/04 09:00:14;;;;;;;8.23;2.72;;;15.10;50.70;;;;;;3582126;40;20021;-62
2021/05/04 09:03:09;;;;;;;5.00;2.72;;;15.10;51.40;;;;;;3584714;40;20016;-62
2021/05/04 09:05:38;;;;;;;5.93;3.35;;;15.00;50.10;;;;;;3589838;39;20613;-62
2021/05/04 09:08:10;;;;;;;3.00;2.00;;;14.80;51.20;;;;;;3588400;39;20040;-61
2021/05/04 09:10:45;;;;;;;6.15;2.92;;;14.80;51.50;;;;;;3586019;39;20468;-62
2021/05/04 09:13:27;;;;;;;8.90;3.35;;;14.70;51.00;;;;;;3585880;40;20161;-62
2021/05/04 09:21:42;;;;;;;6.10;2.75;;;14.80;51.00;;;;;;3587125;39;20063;-62
2021/05/04 09:24:23;;;;;;;3.05;2.25;;;15.20;48.90;;;;;;3587484;39;20021;-61
2021/05/04 09:26:55;;;;;;;2.70;1.80;;;15.50;49.40;;;;;;3588437;40;20024;-61
2021/05/04 09:29:27;;;;;;;11.48;4.15;;;15.70;48.20;;;;;;3586189;39;20044;-62
2021/05/04 09:31:53;;;;;;;7.68;2.47;;;15.70;47.90;;;;;;3589456;39;20286;-62
2021/05/04 09:34:20;;;;;;;2.70;1.90;;;15.70;48.70;;;;;;3586497;39;20109;-61
2021/05/04 09:36:51;;;;;;;7.70;3.42;;;15.70;48.20;;;;;;3586906;40;20704;-61
2021/05/04 09:39:27;;;;;;;10.15;3.50;;;15.80;47.70;;;;;;3585170;39;20800;-63
2021/05/04 09:41:54;;;;;;;8.65;3.20;;;16.00;47.80;;;;;;3584717;39;20776;-61
2021/05/04 09:44:39;;;;;;;7.88;3.85;;;16.00;47.60;;;;;;3586381;40;20530;-62
2021/05/04 09:47:06;;;;;;;4.53;2.22;;;15.90;46.50;;;;;;3581611;40;20041;-61
2021/05/04 09:49:36;;;;;;;8.85;1.77;;;15.90;47.20;;;;;;3582281;40;20045;-61
2021/05/04 09:52:40;;;;;;;9.32;3.55;;;16.10;48.20;;;;;;3585135;40;20130;-61
2021/05/04 09:55:14;;;;;;;5.65;3.10;;;16.20;46.10;;;;;;3585617;39;20399;-61
2021/05/04 09:57:45;;;;;;;5.15;2.40;;;16.10;46.90;;;;;;3586184;39;20028;-61
2021/05/04 10:00:13;;;;;;;7.35;2.67;;;15.90;46.10;;;;;;3582801;40;20341;-60
2021/05/04 10:02:40;;;;;;;10.18;3.83;;;15.90;47.10;;;;;;3583634;40;20028;-62
2021/05/04 10:05:08;;;;;;;5.05;1.58;;;15.70;47.20;;;;;;3591100;40;20097;-62
2021/05/04 10:07:37;;;;;;;10.38;2.60;;;15.50;47.80;;;;;;3587821;40;20036;-62
2021/05/04 10:10:05;;;;;;;6.40;2.95;;;15.40;48.60;;;;;;3588686;40;20455;-62
2021/05/04 10:12:32;;;;;;;4.40;1.48;;;15.50;48.90;;;;;;3587256;40;20043;-63
2021/05/04 10:15:01;;;;;;;3.50;1.50;;;15.70;48.60;;;;;;3588569;40;20020;-61
2021/05/04 10:17:31;;;;;;;10.73;2.03;;;15.80;47.30;;;;;;3585267;40;20036;-61
2021/05/04 10:19:57;;;;;;;4.65;1.50;;;15.70;47.70;;;;;;3587388;39;20037;-61
2021/05/04 10:22:23;;;;;;;2.00;1.52;;;15.50;47.20;;;;;;3586519;40;20041;-61
2021/05/04 10:24:51;;;;;;;5.53;1.60;;;15.60;47.00;;;;;;3586698;40;20333;-61
2021/05/04 10:27:20;;;;;;;4.50;1.60;;;15.60;46.70;;;;;;3586315;39;20099;-61
2021/05/04 10:29:50;;;;;;;4.78;1.50;;;15.80;46.90;;;;;;3589072;40;20020;-63
2021/05/04 10:32:36;;;;;;;4.32;1.30;;;15.80;47.20;;;;;;3586916;39;20076;-62
2021/05/04 10:35:31;;;;;;;4.13;1.40;;;15.80;47.20;;;;;;3586429;40;20040;-62
2021/05/04 10:38:14;;;;;;;2.20;1.35;;;15.50;47.00;;;;;;3588637;40;20173;-61
2021/05/04 10:40:46;;;;;;;4.53;1.73;;;15.30;47.80;;;;;;3585344;40;20038;-59
2021/05/04 10:43:21;;;;;;;8.23;2.35;;;15.10;49.20;;;;;;3584313;39;20033;-60
2021/05/04 10:45:47;;;;;;;2.17;1.70;;;15.20;49.00;;;;;;3584440;40;20032;-62
2021/05/04 10:48:13;;;;;;;3.53;1.63;;;15.20;49.20;;;;;;3587192;40;20432;-71
2021/05/04 10:50:47;;;;;;;2.25;1.13;;;15.20;49.30;;;;;;3585622;39;20028;-65
2021/05/04 10:53:14;;;;;;;3.97;1.30;;;15.20;49.20;;;;;;3582531;40;20020;-62
2021/05/04 10:55:52;;;;;;;3.50;1.50;;;15.40;49.40;;;;;;3583052;40;20033;-63
2021/05/04 10:58:19;;;;;;;6.90;1.45;;;15.40;50.00;;;;;;3588214;40;20082;-60
2021/05/04 11:00:56;;;;;;;6.25;1.50;;;15.20;49.40;;;;;;3587334;40;20036;-60
2021/05/04 11:03:31;;;;;;;3.78;1.42;;;15.30;50.40;;;;;;3587164;39;20024;-61
2021/05/04 11:06:11;;;;;;;3.60;1.20;;;15.50;50.00;;;;;;3585673;40;20027;-60
2021/05/04 11:08:43;;;;;;;4.43;1.30;;;15.40;50.80;;;;;;3591001;40;20029;-61
2021/05/04 11:11:29;;;;;;;4.97;1.15;;;15.80;51.90;;;;;;3583910;40;20040;-61
2021/05/04 11:13:57;;;;;;;2.22;1.02;;;16.00;50.20;;;;;;3586067;40;20591;-64
2021/05/04 11:16:29;;;;;;;3.15;1.23;;;16.20;49.30;;;;;;3586620;40;20036;-62
2021/05/04 11:19:05;;;;;;;9.23;1.17;;;16.10;49.90;;;;;;3589322;40;20043;-61
2021/05/04 11:21:41;;;;;;;;;;;16.00;49.50;;;;;;3587439;39;20040;-61
2021/05/04 11:24:14;;;;;;;5.60;0.93;;;16.00;49.70;;;;;;3590430;40;19943;-61
2021/05/04 11:26:51;;;;;;;4.70;1.27;;;15.70;49.80;;;;;;3584892;40;20040;-66
2021/05/04 11:29:22;;;;;;;4.10;0.80;;;15.70;49.50;;;;;;3584807;40;20032;-61
2021/05/04 11:31:52;;;;;;;3.45;0.93;;;15.60;49.20;;;;;;3587055;40;20047;-61
2021/05/04 11:34:42;;;;;;;1.65;1.30;;;15.70;50.00;;;;;;3586243;40;20028;-60
2021/05/04 11:37:20;;;;;;;2.05;0.82;;;15.80;49.60;;;;;;3590526;40;20043;-60
2021/05/04 11:39:54;;;;;;;1.65;0.95;;;15.80;50.70;;;;;;3583120;40;20030;-62
2021/05/04 11:42:21;;;;;;;6.70;1.00;;;16.00;49.30;;;;;;3585668;40;20048;-64
2021/05/04 11:44:46;;;;;;;2.15;0.95;;;16.00;48.90;;;;;;3585583;40;20020;-64
2021/05/04 11:47:25;;;;;;;1.95;0.90;;;15.90;49.50;;;;;;3583109;40;20141;-61
2021/05/04 11:50:01;;;;;;;1.83;0.90;;;15.70;49.80;;;;;;3580283;40;20040;-61
2021/05/04 11:52:26;;;;;;;6.10;1.20;;;15.70;49.70;;;;;;3586331;40;20035;-60
2021/05/04 11:55:07;;;;;;;3.55;1.10;;;15.60;49.80;;;;;;3586565;40;20058;-61
2021/05/04 11:57:34;;;;;;;3.70;1.30;;;15.50;50.10;;;;;;3584094;40;20091;-61
2021/05/04 11:59:59;;;;;;;6.20;1.48;;;15.10;50.90;;;;;;3582470;40;20032;-61
2021/05/04 12:02:32;;;;;;;8.70;1.05;;;14.90;51.70;;;;;;3580492;40;20412;-61
2021/05/04 12:04:58;;;;;;;0.90;0.90;;;15.00;52.00;;;;;;3581336;40;20110;-61
2021/05/04 12:07:45;;;;;;;2.38;1.13;;;15.10;51.80;;;;;;3572710;40;20035;-62
2021/05/04 12:10:14;;;;;;;5.65;1.63;;;15.10;51.20;;;;;;3583834;40;20028;-60
2021/05/04 12:12:45;;;;;;;4.00;1.40;;;15.10;51.70;;;;;;3585149;40;20036;-60
2021/05/04 12:15:13;;;;;;;2.70;0.95;;;15.10;51.40;;;;;;3583616;40;20137;-61
2021/05/04 12:17:40;;;;;;;2.25;1.38;;;15.10;52.00;;;;;;3579209;40;20055;-61
2021/05/04 12:20:09;;;;;;;1.23;1.13;;;15.20;51.30;;;;;;3580816;40;20085;-61
2021/05/04 12:22:52;;;;;;;2.38;1.02;;;15.20;51.60;;;;;;3586785;40;20043;-61
2021/05/04 12:25:27;;;;;;;2.13;1.20;;;15.20;52.00;;;;;;3583751;40;20036;-61
2021/05/04 12:27:53;;;;;;;1.10;0.98;;;15.40;51.50;;;;;;3583185;39;20036;-61
2021/05/04 12:30:26;;;;;;;7.95;1.65;;;15.60;51.50;;;;;;3580299;40;20087;-69
2021/05/04 12:32:52;;;;;;;1.52;0.90;;;15.90;50.90;;;;;;3587246;39;20035;-60
2021/05/04 12:35:32;;;;;;;2.97;1.02;;;16.00;51.10;;;;;;3583739;40;20036;-60
2021/05/04 12:38:18;;;;;;;3.40;1.20;;;16.00;50.90;;;;;;3583005;40;20028;-60
2021/05/04 12:40:56;;;;;;;2.97;1.00;;;16.10;52.00;;;;;;3585661;40;20464;-60
2021/05/04 12:43:28;;;;;;;2.58;1.08;;;16.50;49.60;;;;;;3584513;40;20033;-65
2021/05/04 12:46:17;;;;;;;6.18;0.90;;;16.80;49.80;;;;;;3586466;40;20681;-62
2021/05/04 12:48:44;;;;;;;3.88;1.20;;;16.70;48.60;;;;;;3582264;40;20342;-62
2021/05/04 12:51:15;;;;;;;7.95;1.00;;;16.70;48.30;;;;;;3583753;40;20028;-61
2021/05/04 12:53:46;;;;;;;7.90;0.80;;;16.40;49.50;;;;;;3583035;40;20051;-62
2021/05/04 12:56:17;;;;;;;4.90;0.88;;;16.10;49.70;;;;;;3585042;40;20033;-63
2021/05/04 12:59:03;;;;;;;5.00;0.85;;;15.90;50.10;;;;;;3577423;40;20047;-62
2021/05/04 13:01:48;;;;;;;4.47;0.77;;;15.80;50.80;;;;;;3580609;40;20032;-62
2021/05/04 13:04:31;;;;;;;1.92;1.05;;;15.80;51.00;;;;;;3582856;40;20846;-63